Portada
METAR-TAF:

METAR-TAF

Aeroports :

Khajuraho, Índia

latitud: 24-49-02N, longitud: 79-55-07E, altitud: 222 m

Observació

L'informe es va fer fa 8 hores i 36 minuts, a les 09:00 UTC
Vent 12 kt del Oest
Temperatura 37°C
Humitat 17%
Pressió 1008 hPa
Visibilitat: 6000 m

METAR: VEKO 210900Z 27012KT 6000 NSC 37/08 Q1008

Hora: 23:06 (17:36 UTC)

Pronòstic

L'informe es va fer fa 36 minuts, a les 17:00 UTC
Pronòstic vàlid del 21 a les 18 UTC al 22 a les 03 UTC
Vent 5 kt del Oest
Visibilitat: 3000 m
calitja

TAF: VEKO 211700Z 2118/2203 27005KT 3000 HZ NSC

Observacions i pronòstics meteorològics de més de 4000 aeroports (METAR i TAF).

Les estacions disponibles són els punts grocs i vermells al mapa.

Posi el ratolí al punt desitjat per veure el nom de l'estació.

Feu clic per veure les observacions i els pronòstics meteorològics.

Per canviar el mapa: feu clic els botons verds amb una creu de color negre per apropar; al botó verd amb un guió per allunyar la imatge; o en les fletxes verdes per a mapes adjacents.


METAR-TAF: